Time;durP1;ratioP1;P1;durP2;ratioP2;P2;SDS_P1;SDS_P2;PMS_P1;PMS_P2;Temp;Humidity;BMP_temperature;BMP_pressure;BME280_temperature;BME280_humidity;BME280_pressure;Samples;Min_cycle;Max_cycle;Signal;HPM_P1;HPM_P2
2022/04/05 00:02:14;;;;;;;62.75;32.85;;;;;;;;;;5034911;28;20401;-68
2022/04/05 00:04:41;;;;;;;63.80;34.05;;;;;;;;;;5052762;28;20028;-68
2022/04/05 00:07:08;;;;;;;66.60;37.10;;;;;;;;;;5052756;28;20064;-69
2022/04/05 00:09:34;;;;;;;72.57;38.80;;;;;;;;;;5052756;28;20029;-69
2022/04/05 00:12:01;;;;;;;66.82;35.20;;;;;;;;;;5052695;28;20025;-69
2022/04/05 00:14:27;;;;;;;60.28;35.60;;;;;;;;;;5034531;28;20049;-69
2022/04/05 00:16:53;;;;;;;73.22;37.25;;;;;;;;;;5034699;28;20032;-70
2022/04/05 00:19:19;;;;;;;74.93;40.13;;;;;;;;;;5052626;28;20057;-70
2022/04/05 00:21:46;;;;;;;79.65;39.70;;;;;;;;;;5052880;28;20037;-69
2022/04/05 00:24:12;;;;;;;71.85;38.63;;;;;;;;;;5034689;28;20029;-69
2022/04/05 00:26:38;;;;;;;75.13;40.05;;;;;;;;;;5052291;28;20108;-70
2022/04/05 00:29:04;;;;;;;76.28;39.30;;;;;;;;;;5034701;28;20036;-71
2022/04/05 00:31:31;;;;;;;69.82;38.83;;;;;;;;;;5052509;28;20158;-69
2022/04/05 00:33:57;;;;;;;66.90;35.63;;;;;;;;;;5034562;28;20029;-72
2022/04/05 00:36:23;;;;;;;63.00;36.63;;;;;;;;;;5034572;28;20025;-71
2022/04/05 00:38:49;;;;;;;89.90;45.97;;;;;;;;;;5034539;28;20044;-71
2022/04/05 00:41:15;;;;;;;62.33;35.15;;;;;;;;;;5052439;28;20036;-70
2022/04/05 00:43:42;;;;;;;58.92;34.00;;;;;;;;;;5052368;28;20033;-70
2022/04/05 00:46:08;;;;;;;56.42;31.63;;;;;;;;;;5034158;28;20025;-71
2022/04/05 00:48:49;;;;;;;60.17;31.80;;;;;;;;;;5052345;28;20035;-72
2022/04/05 00:51:16;;;;;;;61.58;34.05;;;;;;;;;;5056119;28;20029;-72
2022/04/05 00:53:44;;;;;;;81.70;38.45;;;;;;;;;;5038072;28;20067;-72
2022/04/05 00:56:12;;;;;;;83.07;40.67;;;;;;;;;;5038026;28;20469;-72
2022/04/05 00:58:38;;;;;;;89.82;43.85;;;;;;;;;;5055865;28;20036;-71
2022/04/05 01:01:05;;;;;;;94.88;42.15;;;;;;;;;;5055863;28;20043;-72
2022/04/05 01:03:32;;;;;;;64.40;34.58;;;;;;;;;;5037917;28;20491;-71
2022/04/05 01:05:59;;;;;;;70.47;38.35;;;;;;;;;;5055798;28;20537;-67
2022/04/05 01:08:26;;;;;;;67.70;38.45;;;;;;;;;;5055467;28;20036;-67
2022/04/05 01:10:52;;;;;;;74.32;38.38;;;;;;;;;;5037759;28;20028;-68
2022/04/05 01:13:19;;;;;;;71.40;39.10;;;;;;;;;;5055375;28;20464;-66
2022/04/05 01:15:46;;;;;;;69.40;37.35;;;;;;;;;;5037235;28;20124;-69
2022/04/05 01:18:14;;;;;;;68.35;36.25;;;;;;;;;;5037558;28;20025;-67
2022/04/05 01:20:40;;;;;;;60.90;35.70;;;;;;;;;;5055581;28;20021;-66
2022/04/05 01:23:06;;;;;;;76.28;41.55;;;;;;;;;;5037534;28;20025;-68
2022/04/05 01:25:32;;;;;;;65.35;36.95;;;;;;;;;;5055409;28;20480;-66
2022/04/05 01:27:59;;;;;;;70.97;39.47;;;;;;;;;;5055133;28;20461;-65
2022/04/05 01:30:25;;;;;;;74.07;38.70;;;;;;;;;;5055581;28;20068;-67
2022/04/05 01:32:54;;;;;;;70.03;37.63;;;;;;;;;;5055577;28;20468;-64
2022/04/05 01:35:20;;;;;;;64.88;35.05;;;;;;;;;;5055256;28;20029;-68
2022/04/05 01:37:46;;;;;;;64.60;36.17;;;;;;;;;;5055177;28;20500;-66
2022/04/05 01:40:13;;;;;;;63.72;36.40;;;;;;;;;;5055113;28;20037;-66
2022/04/05 01:42:39;;;;;;;71.15;39.20;;;;;;;;;;5055127;28;20029;-66
2022/04/05 01:45:06;;;;;;;70.78;36.97;;;;;;;;;;5055120;28;20032;-66
2022/04/05 01:47:32;;;;;;;70.90;37.25;;;;;;;;;;5055024;28;20025;-67
2022/04/05 01:49:59;;;;;;;64.40;35.75;;;;;;;;;;5054717;28;20032;-66
2022/04/05 01:52:25;;;;;;;70.78;36.15;;;;;;;;;;5054905;28;20043;-66
2022/04/05 01:54:51;;;;;;;64.30;34.80;;;;;;;;;;5055145;28;20024;-67
2022/04/05 01:57:17;;;;;;;66.47;34.90;;;;;;;;;;5054828;28;20043;-67
2022/04/05 01:59:44;;;;;;;61.67;34.22;;;;;;;;;;5036849;28;20033;-66
2022/04/05 02:02:11;;;;;;;61.88;33.55;;;;;;;;;;5035790;28;20025;-67
2022/04/05 02:04:38;;;;;;;62.47;32.90;;;;;;;;;;5054705;28;20024;-68
2022/04/05 02:07:18;;;;;;;59.08;32.42;;;;;;;;;;5054663;28;20474;-66
2022/04/05 02:09:45;;;;;;;64.43;32.88;;;;;;;;;;5054505;28;20033;-67
2022/04/05 02:12:12;;;;;;;58.20;32.13;;;;;;;;;;5054546;28;20355;-66
2022/04/05 02:14:38;;;;;;;59.58;33.13;;;;;;;;;;5054267;28;20025;-69
2022/04/05 02:17:05;;;;;;;64.05;32.70;;;;;;;;;;5054480;28;20049;-67
2022/04/05 02:19:32;;;;;;;57.17;31.75;;;;;;;;;;5036421;28;20067;-66
2022/04/05 02:21:58;;;;;;;60.20;32.75;;;;;;;;;;5054358;28;20025;-68
2022/04/05 02:24:25;;;;;;;68.47;35.88;;;;;;;;;;5054308;28;20033;-69
2022/04/05 02:26:51;;;;;;;75.03;39.42;;;;;;;;;;5054230;28;20074;-68
2022/04/05 02:29:17;;;;;;;84.60;42.90;;;;;;;;;;5054226;28;20485;-68
2022/04/05 02:31:43;;;;;;;79.00;39.30;;;;;;;;;;5036291;28;20408;-67
2022/04/05 02:34:10;;;;;;;73.55;42.13;;;;;;;;;;5054122;28;20462;-66
2022/04/05 02:36:36;;;;;;;71.60;38.65;;;;;;;;;;5053764;28;20025;-68
2022/04/05 02:39:03;;;;;;;69.75;37.53;;;;;;;;;;5053950;28;20029;-70
2022/04/05 02:41:29;;;;;;;62.00;33.58;;;;;;;;;;5054035;28;20025;-67
2022/04/05 02:43:55;;;;;;;74.47;34.88;;;;;;;;;;5053941;28;20079;-69
2022/04/05 02:46:21;;;;;;;69.93;34.13;;;;;;;;;;5053899;28;20547;-67
2022/04/05 02:48:48;;;;;;;75.93;35.90;;;;;;;;;;5053524;28;20040;-70
2022/04/05 02:51:15;;;;;;;74.03;34.47;;;;;;;;;;5035935;28;20029;-69
2022/04/05 02:53:41;;;;;;;69.85;34.83;;;;;;;;;;5053813;28;20025;-68
2022/04/05 02:56:07;;;;;;;66.65;33.30;;;;;;;;;;5053720;28;20025;-69
2022/04/05 02:58:35;;;;;;;65.25;36.03;;;;;;;;;;5035692;28;20037;-68
2022/04/05 03:01:02;;;;;;;65.25;32.90;;;;;;;;;;5055692;28;20524;-68
2022/04/05 03:03:28;;;;;;;62.80;33.78;;;;;;;;;;5044100;28;20107;-68
2022/04/05 03:05:54;;;;;;;72.57;33.42;;;;;;;;;;5073438;28;20036;-68
2022/04/05 03:08:22;;;;;;;61.60;35.13;;;;;;;;;;5073436;28;20029;-67
2022/04/05 03:10:48;;;;;;;65.72;35.10;;;;;;;;;;5073484;28;20024;-68
2022/04/05 03:13:14;;;;;;;63.60;34.08;;;;;;;;;;5072976;28;20043;-66
2022/04/05 03:15:40;;;;;;;63.33;34.33;;;;;;;;;;5072963;28;20051;-67
2022/04/05 03:18:07;;;;;;;73.38;36.08;;;;;;;;;;5073498;28;20028;-68
2022/04/05 03:20:33;;;;;;;69.78;36.35;;;;;;;;;;5073319;28;20112;-69
2022/04/05 03:23:00;;;;;;;69.70;35.28;;;;;;;;;;5055295;28;20028;-66
2022/04/05 03:25:27;;;;;;;71.60;35.35;;;;;;;;;;5073213;28;20025;-68
2022/04/05 03:27:53;;;;;;;63.55;35.70;;;;;;;;;;5073468;28;20050;-69
2022/04/05 03:30:20;;;;;;;75.00;36.13;;;;;;;;;;5073209;28;20024;-68
2022/04/05 03:32:46;;;;;;;70.57;37.85;;;;;;;;;;5055148;28;20027;-68
2022/04/05 03:35:13;;;;;;;75.20;39.05;;;;;;;;;;5055146;28;20028;-68
2022/04/05 03:37:39;;;;;;;62.17;35.92;;;;;;;;;;5067139;28;20155;-68
2022/04/05 03:40:06;;;;;;;65.13;37.35;;;;;;;;;;5061423;28;20121;-68
2022/04/05 03:42:32;;;;;;;70.93;36.88;;;;;;;;;;5065972;28;20025;-68
2022/04/05 03:44:59;;;;;;;72.00;37.08;;;;;;;;;;5055806;28;20033;-68
2022/04/05 03:47:27;;;;;;;69.03;37.63;;;;;;;;;;5063136;28;20024;-69
2022/04/05 03:49:53;;;;;;;75.15;37.70;;;;;;;;;;5068748;28;20504;-67
2022/04/05 03:52:19;;;;;;;68.22;36.38;;;;;;;;;;5072975;28;20033;-67
2022/04/05 03:54:46;;;;;;;57.75;32.63;;;;;;;;;;5072939;28;20115;-67
2022/04/05 03:57:12;;;;;;;58.47;32.10;;;;;;;;;;5072874;28;20024;-69
2022/04/05 03:59:39;;;;;;;60.03;34.22;;;;;;;;;;5054381;28;20389;-69
2022/04/05 04:02:05;;;;;;;65.13;32.05;;;;;;;;;;5072813;28;20028;-69
2022/04/05 04:04:31;;;;;;;63.20;33.40;;;;;;;;;;5072840;28;20504;-69
2022/04/05 04:06:58;;;;;;;67.32;33.53;;;;;;;;;;5073036;28;20024;-71
2022/04/05 04:09:24;;;;;;;71.45;35.05;;;;;;;;;;5072711;28;20028;-70
2022/04/05 04:11:50;;;;;;;65.85;35.35;;;;;;;;;;5072703;28;20029;-70
2022/04/05 04:14:17;;;;;;;67.97;37.00;;;;;;;;;;5072749;28;20461;-71
2022/04/05 04:16:43;;;;;;;85.32;42.65;;;;;;;;;;5072784;28;20135;-70
2022/04/05 04:19:10;;;;;;;84.13;43.58;;;;;;;;;;5054215;28;20119;-69
2022/04/05 04:21:36;;;;;;;85.28;42.78;;;;;;;;;;5072711;28;20074;-69
2022/04/05 04:24:02;;;;;;;77.75;40.67;;;;;;;;;;5072678;28;20100;-70
2022/04/05 04:26:28;;;;;;;75.22;40.63;;;;;;;;;;5058522;28;20031;-69
2022/04/05 04:28:57;;;;;;;87.05;42.08;;;;;;;;;;5058467;28;20032;-70
2022/04/05 04:31:24;;;;;;;102.88;47.47;;;;;;;;;;5058484;28;20496;-70
2022/04/05 04:33:50;;;;;;;107.78;51.45;;;;;;;;;;5076664;28;20465;-72
2022/04/05 04:36:16;;;;;;;107.03;54.45;;;;;;;;;;5076334;28;20048;-70
2022/04/05 04:38:43;;;;;;;89.75;48.58;;;;;;;;;;5076225;28;20033;-69
2022/04/05 04:41:09;;;;;;;113.95;51.72;;;;;;;;;;5076346;28;20151;-72
2022/04/05 04:43:36;;;;;;;105.93;51.47;;;;;;;;;;5058251;28;20116;-70
2022/04/05 04:46:02;;;;;;;100.30;49.72;;;;;;;;;;5076094;28;20031;-70
2022/04/05 04:48:28;;;;;;;107.65;55.00;;;;;;;;;;5075830;28;20031;-69
2022/04/05 04:50:54;;;;;;;103.80;52.78;;;;;;;;;;5058047;28;20078;-68
2022/04/05 04:53:21;;;;;;;101.97;51.20;;;;;;;;;;5075997;28;20028;-69
2022/04/05 04:55:47;;;;;;;100.85;51.35;;;;;;;;;;5075927;28;20108;-71
2022/04/05 04:58:14;;;;;;;114.15;52.88;;;;;;;;;;5075823;28;20028;-70
2022/04/05 05:00:40;;;;;;;113.70;51.03;;;;;;;;;;5075830;28;20448;-70
2022/04/05 05:03:06;;;;;;;116.95;50.40;;;;;;;;;;5075768;28;20051;-69
2022/04/05 05:05:33;;;;;;;97.57;48.42;;;;;;;;;;5075756;28;20029;-69
2022/04/05 05:07:59;;;;;;;112.72;48.90;;;;;;;;;;5075709;28;20029;-69
2022/04/05 05:10:25;;;;;;;103.20;47.47;;;;;;;;;;5075347;28;20431;-69
2022/04/05 05:12:51;;;;;;;92.22;47.13;;;;;;;;;;5075683;28;20029;-70
2022/04/05 05:15:19;;;;;;;91.07;44.90;;;;;;;;;;5075470;28;20128;-71
2022/04/05 05:17:46;;;;;;;83.68;46.33;;;;;;;;;;5075545;28;20021;-69
2022/04/05 05:20:13;;;;;;;99.03;47.35;;;;;;;;;;5057406;28;20039;-71
2022/04/05 05:22:39;;;;;;;87.93;44.97;;;;;;;;;;5075726;28;20027;-67
2022/04/05 05:25:06;;;;;;;72.25;40.72;;;;;;;;;;5075415;28;20036;-67
2022/04/05 05:27:32;;;;;;;88.75;45.50;;;;;;;;;;5075010;28;20033;-66
2022/04/05 05:30:00;;;;;;;89.03;44.17;;;;;;;;;;5057282;28;20062;-67
2022/04/05 05:32:26;;;;;;;83.38;45.42;;;;;;;;;;5057329;28;20025;-66
2022/04/05 05:34:52;;;;;;;76.35;40.63;;;;;;;;;;5075252;28;20111;-65
2022/04/05 05:37:18;;;;;;;96.97;45.75;;;;;;;;;;5074865;28;20534;-66
2022/04/05 05:39:45;;;;;;;88.50;44.67;;;;;;;;;;5075011;28;20075;-66
2022/04/05 05:42:11;;;;;;;79.10;43.75;;;;;;;;;;5056993;28;20024;-65
2022/04/05 05:44:37;;;;;;;72.55;41.78;;;;;;;;;;5075027;28;20058;-66
2022/04/05 05:47:05;;;;;;;76.63;44.70;;;;;;;;;;5074883;28;20021;-66
2022/04/05 05:49:32;;;;;;;75.82;43.42;;;;;;;;;;5057288;28;20347;-66
2022/04/05 05:51:58;;;;;;;70.22;40.85;;;;;;;;;;5074840;28;20109;-67
2022/04/05 05:54:24;;;;;;;64.82;37.83;;;;;;;;;;5075050;28;20025;-67
2022/04/05 05:56:50;;;;;;;58.25;33.97;;;;;;;;;;5074822;28;20432;-66
2022/04/05 05:59:16;;;;;;;56.65;33.35;;;;;;;;;;5074742;28;20056;-65
2022/04/05 06:01:43;;;;;;;52.45;34.13;;;;;;;;;;5074682;28;20063;-65
2022/04/05 06:04:09;;;;;;;67.05;32.78;;;;;;;;;;5074546;28;20039;-65
2022/04/05 06:06:35;;;;;;;120.85;53.85;;;;;;;;;;5074543;28;20028;-65
2022/04/05 06:09:01;;;;;;;94.90;44.00;;;;;;;;;;5056639;28;20036;-65
2022/04/05 06:11:27;;;;;;;99.18;46.35;;;;;;;;;;5074736;28;20466;-65
2022/04/05 06:13:54;;;;;;;55.40;29.70;;;;;;;;;;5074413;28;20027;-65
2022/04/05 06:16:20;;;;;;;102.18;54.35;;;;;;;;;;5073945;28;20040;-66
2022/04/05 06:18:47;;;;;;;62.88;33.50;;;;;;;;;;5074294;28;20469;-66
2022/04/05 06:21:14;;;;;;;66.20;37.78;;;;;;;;;;5074312;28;20028;-66
2022/04/05 06:23:40;;;;;;;62.92;34.28;;;;;;;;;;5074269;28;20029;-65
2022/04/05 06:26:07;;;;;;;65.68;37.05;;;;;;;;;;5072850;28;20020;-66
2022/04/05 06:28:33;;;;;;;122.70;64.70;;;;;;;;;;5072238;28;20032;-65
2022/04/05 06:30:59;;;;;;;62.58;33.85;;;;;;;;;;5073031;28;20182;-66
2022/04/05 06:33:25;;;;;;;55.70;30.10;;;;;;;;;;5073445;28;20461;-66
2022/04/05 06:35:53;;;;;;;47.35;27.92;;;;;;;;;;5055578;28;20032;-65
2022/04/05 06:38:19;;;;;;;36.13;24.25;;;;;;;;;;5055725;28;20484;-67
2022/04/05 06:40:49;;;;;;;44.45;25.52;;;;;;;;;;5073684;28;20028;-66
2022/04/05 06:43:16;;;;;;;36.70;23.90;;;;;;;;;;5073934;28;20028;-66
2022/04/05 06:45:42;;;;;;;42.80;25.55;;;;;;;;;;5073540;28;20024;-66
2022/04/05 06:48:09;;;;;;;54.47;27.10;;;;;;;;;;5055324;28;20028;-65
2022/04/05 06:50:36;;;;;;;47.22;26.92;;;;;;;;;;5073732;28;20381;-65
2022/04/05 06:53:03;;;;;;;55.95;29.48;;;;;;;;;;5073761;28;20020;-66
2022/04/05 06:55:29;;;;;;;58.10;31.25;;;;;;;;;;5073979;28;20028;-65
2022/04/05 06:57:56;;;;;;;45.75;26.20;;;;;;;;;;5055641;28;20025;-64
2022/04/05 07:00:23;;;;;;;37.97;23.13;;;;;;;;;;5073454;28;20063;-68
2022/04/05 07:02:51;;;;;;;43.00;24.05;;;;;;;;;;5063025;28;20017;-66
2022/04/05 07:05:17;;;;;;;41.28;21.83;;;;;;;;;;5052936;28;20112;-68
2022/04/05 07:07:44;;;;;;;41.88;24.67;;;;;;;;;;5035463;28;20074;-68
2022/04/05 07:10:11;;;;;;;38.65;22.83;;;;;;;;;;5053291;28;20041;-68
2022/04/05 07:12:37;;;;;;;42.58;23.60;;;;;;;;;;5053208;28;20104;-67
2022/04/05 07:15:04;;;;;;;35.40;22.13;;;;;;;;;;5035107;28;20041;-69
2022/04/05 07:17:30;;;;;;;35.25;19.95;;;;;;;;;;5035404;28;20442;-70
2022/04/05 07:19:56;;;;;;;37.38;22.83;;;;;;;;;;5053127;28;20029;-69
2022/04/05 07:22:24;;;;;;;38.42;23.52;;;;;;;;;;5053110;28;20025;-71
2022/04/05 07:24:50;;;;;;;39.80;23.90;;;;;;;;;;5035245;28;20057;-69
2022/04/05 07:27:16;;;;;;;36.60;21.48;;;;;;;;;;5035140;28;20079;-74
2022/04/05 07:29:42;;;;;;;34.58;18.92;;;;;;;;;;5053058;28;20025;-69
2022/04/05 07:32:09;;;;;;;28.75;18.58;;;;;;;;;;5052940;28;20108;-71
2022/04/05 07:34:36;;;;;;;25.00;17.52;;;;;;;;;;5055772;28;20025;-70
2022/04/05 07:37:02;;;;;;;24.80;16.02;;;;;;;;;;5052412;28;20454;-71
2022/04/05 07:39:29;;;;;;;27.75;17.10;;;;;;;;;;5052696;28;20478;-71
2022/04/05 07:41:55;;;;;;;26.30;16.50;;;;;;;;;;5035137;28;20385;-71
2022/04/05 07:44:21;;;;;;;24.52;14.85;;;;;;;;;;5042705;28;20028;-70
2022/04/05 07:46:47;;;;;;;24.92;13.38;;;;;;;;;;5064833;28;20052;-72
2022/04/05 07:49:14;;;;;;;19.40;12.57;;;;;;;;;;5054506;28;20381;-70
2022/04/05 07:51:40;;;;;;;18.38;10.73;;;;;;;;;;5072715;28;20052;-71
2022/04/05 07:54:06;;;;;;;17.83;8.40;;;;;;;;;;5072933;28;20063;-70
2022/04/05 07:56:33;;;;;;;13.48;9.15;;;;;;;;;;5072059;28;20029;-70
2022/04/05 07:59:01;;;;;;;14.07;8.55;;;;;;;;;;5071862;28;20082;-70
2022/04/05 08:01:29;;;;;;;14.95;8.63;;;;;;;;;;5077141;28;20107;-70
2022/04/05 08:03:56;;;;;;;13.70;8.57;;;;;;;;;;5076924;28;20033;-70
2022/04/05 08:06:23;;;;;;;15.57;8.95;;;;;;;;;;5058559;28;20025;-70
2022/04/05 08:08:50;;;;;;;14.57;9.05;;;;;;;;;;5058828;28;20037;-70
2022/04/05 08:11:17;;;;;;;14.77;9.15;;;;;;;;;;5076380;28;20032;-69
2022/04/05 08:13:43;;;;;;;13.00;8.05;;;;;;;;;;5076621;28;20025;-70
2022/04/05 08:16:09;;;;;;;10.00;6.38;;;;;;;;;;5055020;28;20187;-70
2022/04/05 08:18:35;;;;;;;13.38;7.75;;;;;;;;;;5056212;28;20127;-70
2022/04/05 08:21:01;;;;;;;12.52;9.18;;;;;;;;;;5056446;28;20094;-70
2022/04/05 08:23:28;;;;;;;14.50;7.78;;;;;;;;;;5056500;28;20052;-70
2022/04/05 08:25:54;;;;;;;17.02;7.13;;;;;;;;;;5056462;28;20013;-72
2022/04/05 08:28:20;;;;;;;18.55;8.02;;;;;;;;;;5056271;28;20356;-70
2022/04/05 08:30:46;;;;;;;14.23;8.95;;;;;;;;;;5056274;28;20029;-68
2022/04/05 08:33:13;;;;;;;13.55;6.78;;;;;;;;;;5056557;28;20116;-69
2022/04/05 08:35:39;;;;;;;7.45;4.93;;;;;;;;;;5056143;28;20021;-68
2022/04/05 08:38:05;;;;;;;6.57;4.30;;;;;;;;;;5056158;28;20025;-68
2022/04/05 08:40:32;;;;;;;7.25;3.78;;;;;;;;;;5056128;28;20096;-70
2022/04/05 08:42:59;;;;;;;9.98;3.50;;;;;;;;;;5056209;28;20021;-69
2022/04/05 08:45:26;;;;;;;4.68;3.70;;;14.40;76.00;;;;;;5054858;28;20033;-69
2022/04/05 08:47:58;;;;;;;7.15;3.13;;;14.40;76.70;;;;;;5056028;28;20029;-70
2022/04/05 08:50:32;;;;;;;5.05;2.33;;;14.50;73.60;;;;;;5055852;28;20040;-70
2022/04/05 08:53:00;;;;;;;12.93;2.58;;;14.60;72.20;;;;;;5056030;28;20033;-71
2022/04/05 08:55:28;;;;;;;2.92;1.98;;;14.70;71.20;;;;;;5056191;28;20031;-70
2022/04/05 08:57:57;;;;;;;3.40;1.67;;;14.90;69.10;;;;;;5055920;28;20075;-69
2022/04/05 09:00:24;;;;;;;4.57;2.00;;;14.80;70.10;;;;;;5055737;28;20116;-71
2022/04/05 09:03:04;;;;;;;5.38;1.98;;;14.70;67.70;;;;;;5055838;28;20060;-68
2022/04/05 09:05:34;;;;;;;5.28;1.58;;;14.80;69.20;;;;;;5055761;28;20036;-71
2022/04/05 09:08:21;;;;;;;3.00;1.75;;;14.90;65.90;;;;;;5055897;28;20107;-70
2022/04/05 09:10:50;;;;;;;1.85;1.50;;;15.00;65.90;;;;;;5055184;28;20025;-70
2022/04/05 09:13:26;;;;;;;2.80;2.03;;;;;;;;;;5054292;28;20025;-71
2022/04/05 09:15:56;;;;;;;7.75;3.63;;;15.20;64.40;;;;;;5067240;28;20048;-71
2022/04/05 09:18:38;;;;;;;12.77;6.40;;;15.50;67.20;;;;;;5074554;28;20056;-70
2022/04/05 09:21:06;;;;;;;7.07;4.97;;;15.70;68.30;;;;;;5074990;28;20060;-70
2022/04/05 09:23:43;;;;;;;2.85;2.00;;;15.80;64.60;;;;;;5075404;28;20031;-71
2022/04/05 09:26:14;;;;;;;2.83;1.65;;;15.90;65.30;;;;;;5056904;28;20060;-70
2022/04/05 09:28:51;;;;;;;4.25;1.98;;;16.10;64.50;;;;;;5075361;28;20024;-71
2022/04/05 09:31:20;;;;;;;3.88;1.85;;;16.10;62.90;;;;;;5075243;28;20056;-73
2022/04/05 09:34:08;;;;;;;2.35;1.70;;;16.00;62.40;;;;;;5075160;28;20127;-70
2022/04/05 09:36:42;;;;;;;5.78;2.42;;;16.30;65.40;;;;;;5075039;28;20481;-68
2022/04/05 09:39:17;;;;;;;6.40;2.15;;;16.50;62.30;;;;;;5044984;28;20378;-68
2022/04/05 09:41:44;;;;;;;3.45;1.77;;;16.60;62.60;;;;;;5054966;28;20029;-68
2022/04/05 09:44:10;;;;;;;3.65;2.00;;;16.70;61.70;;;;;;5054971;28;20029;-67
2022/04/05 09:46:36;;;;;;;4.68;1.90;;;16.90;62.60;;;;;;5055024;28;20039;-68
2022/04/05 09:49:08;;;;;;;4.75;2.05;;;17.00;64.50;;;;;;5036845;28;20359;-69
2022/04/05 09:51:38;;;;;;;4.50;1.92;;;16.80;60.50;;;;;;5052106;28;20021;-69
2022/04/05 09:54:04;;;;;;;6.28;1.90;;;17.00;63.90;;;;;;5056686;28;20029;-67
2022/04/05 09:56:40;;;;;;;2.13;1.88;;;17.10;60.90;;;;;;5074784;28;20381;-71
2022/04/05 09:59:18;;;;;;;3.00;1.77;;;17.00;60.60;;;;;;5074628;28;20113;-71
2022/04/05 10:01:46;;;;;;;4.30;2.08;;;17.10;59.90;;;;;;5074468;28;20028;-67
2022/04/05 10:04:17;;;;;;;3.30;2.25;;;16.80;59.70;;;;;;5074114;28;20508;-68
2022/04/05 10:06:47;;;;;;;3.80;2.05;;;17.00;61.80;;;;;;5074507;28;20021;-67
2022/04/05 10:09:17;;;;;;;3.63;1.95;;;17.30;63.00;;;;;;5040145;28;20067;-69
2022/04/05 10:11:44;;;;;;;5.57;3.25;;;17.10;60.80;;;;;;5054493;28;20032;-69
2022/04/05 10:14:14;;;;;;;2.78;2.05;;;17.60;61.10;;;;;;5053934;28;20389;-73
2022/04/05 10:16:41;;;;;;;3.38;2.42;;;17.60;59.10;;;;;;5036292;28;20056;-69
2022/04/05 10:19:10;;;;;;;3.38;2.20;;;17.90;60.70;;;;;;5054296;28;20116;-67
2022/04/05 10:21:39;;;;;;;3.00;2.20;;;18.00;58.80;;;;;;5035993;28;20028;-67
2022/04/05 10:24:06;;;;;;;3.08;2.28;;;18.00;60.20;;;;;;5053769;28;20411;-69
2022/04/05 10:26:40;;;;;;;5.07;2.58;;;18.10;61.10;;;;;;5053921;28;20029;-67
2022/04/05 10:29:15;;;;;;;5.57;2.70;;;18.40;59.60;;;;;;5035892;28;20039;-68
2022/04/05 10:31:57;;;;;;;4.05;2.78;;;;;;;;;;5054017;28;20466;-70
2022/04/05 10:34:25;;;;;;;6.75;3.53;;;18.90;60.40;;;;;;5059831;28;20408;-68
2022/04/05 10:37:18;;;;;;;3.47;2.45;;;20.40;56.40;;;;;;5053064;28;20384;-66
2022/04/05 10:39:56;;;;;;;10.70;2.42;;;20.60;54.90;;;;;;5035888;28;20495;-66
2022/04/05 10:42:25;;;;;;;3.28;2.40;;;21.10;53.80;;;;;;5053216;28;20478;-66
2022/04/05 10:45:12;;;;;;;4.47;2.55;;;21.20;52.10;;;;;;5053443;28;20048;-66
2022/04/05 10:47:57;;;;;;;4.32;2.33;;;;;;;;;;5053477;28;20530;-68
2022/04/05 10:50:23;;;;;;;80.20;16.08;;;;;;;;;;5053437;28;20032;-66
2022/04/05 10:53:11;;;;;;;101.40;19.27;;;22.60;49.30;;;;;;5053559;28;20024;-66
2022/04/05 10:56:09;;;;;;;213.73;50.40;;;23.80;51.50;;;;;;5053861;28;20029;-66
2022/04/05 10:58:47;;;;;;;45.78;11.27;;;23.30;46.90;;;;;;5035381;28;20090;-68
2022/04/05 11:01:25;;;;;;;17.50;5.40;;;24.70;47.70;;;;;;5053667;28;20035;-69
2022/04/05 11:04:16;;;;;;;5.60;3.38;;;25.90;47.50;;;;;;5053137;28;20017;-69
2022/04/05 11:07:01;;;;;;;8.23;3.78;;;;;;;;;;5053598;28;20035;-68
2022/04/05 11:09:28;;;;;;;11.25;5.47;;;26.00;45.10;;;;;;5053266;28;20040;-67
2022/04/05 11:11:55;;;;;;;6.03;2.80;;;26.80;45.40;;;;;;5035025;28;20036;-70
2022/04/05 11:14:37;;;;;;;14.32;6.50;;;;;;;;;;5053213;28;20040;-67
2022/04/05 11:17:05;;;;;;;5.90;2.50;;;26.70;43.00;;;;;;5053093;28;20432;-66
2022/04/05 11:19:33;;;;;;;2.90;2.30;;;;;;;;;;5053072;28;20108;-67
2022/04/05 11:22:20;;;;;;;2.72;2.00;;;26.60;43.30;;;;;;5034984;28;20091;-68
2022/04/05 11:25:07;;;;;;;2.83;2.20;;;26.00;43.40;;;;;;5052751;28;20032;-67
2022/04/05 11:27:35;;;;;;;3.53;2.50;;;;;;;;;;5053345;28;20037;-71
2022/04/05 11:30:20;;;;;;;4.90;2.10;;;;;;;;;;5052548;28;20017;-67
2022/04/05 11:33:05;;;;;;;2.20;1.83;;;;;;;;;;5053207;28;20104;-67
2022/04/05 11:35:34;;;;;;;2.50;2.00;;;;;;;;;;5035090;28;20025;-69
2022/04/05 11:38:00;;;;;;;3.80;1.88;;;27.00;43.10;;;;;;5053109;28;20048;-69
2022/04/05 11:40:26;;;;;;;5.95;2.13;;;29.70;40.20;;;;;;5034792;28;20072;-68
2022/04/05 11:42:52;;;;;;;4.85;1.90;;;29.60;38.80;;;;;;5052699;28;20032;-70
2022/04/05 11:45:19;;;;;;;2.17;1.92;;;28.60;38.80;;;;;;5052735;28;20033;-69
2022/04/05 11:47:55;;;;;;;1.48;1.33;;;29.30;40.30;;;;;;5034796;28;20025;-69
2022/04/05 11:50:21;;;;;;;2.17;1.77;;;28.10;38.40;;;;;;5052583;28;20143;-69
2022/04/05 11:52:47;;;;;;;2.80;1.60;;;28.50;38.00;;;;;;5052637;28;20469;-69
2022/04/05 11:58:01;;;;;;;2.53;1.70;;;29.00;37.10;;;;;;5052361;28;20443;-69
2022/04/05 12:00:27;;;;;;;1.80;1.70;;;28.50;37.90;;;;;;5052246;28;20104;-70
2022/04/05 12:03:07;;;;;;;4.68;1.92;;;29.80;39.10;;;;;;5034365;28;20029;-68
2022/04/05 12:05:45;;;;;;;3.97;2.30;;;29.40;37.40;;;;;;5052562;28;20036;-68
2022/04/05 12:08:13;;;;;;;3.20;2.03;;;;;;;;;;5052421;28;20021;-69
2022/04/05 12:10:40;;;;;;;4.38;2.33;;;29.20;37.60;;;;;;5052475;28;20033;-67
2022/04/05 12:13:06;;;;;;;11.43;7.45;;;;;;;;;;5051947;28;20055;-67
2022/04/05 12:15:37;;;;;;;4.22;1.70;;;30.30;37.60;;;;;;5030998;28;20494;-67
2022/04/05 12:18:20;;;;;;;8.25;2.15;;;29.70;37.40;;;;;;5031165;28;20044;-67
2022/04/05 12:20:55;;;;;;;4.32;2.00;;;29.50;42.10;;;;;;5031995;28;20428;-66
2022/04/05 12:23:22;;;;;;;3.90;2.00;;;;;;;;;;5032526;28;20096;-67
2022/04/05 12:26:02;;;;;;;5.75;1.90;;;28.70;37.40;;;;;;5032428;28;20052;-67
2022/04/05 12:28:28;;;;;;;2.10;1.80;;;29.50;69.10;;;;;;5030926;28;20496;-67
2022/04/05 12:31:03;;;;;;;2.60;1.67;;;;;;;;;;5030888;28;20030;-67
2022/04/05 12:33:29;;;;;;;2.40;2.00;;;;;;;;;;5032396;28;20053;-69
2022/04/05 12:35:55;;;;;;;5.50;1.80;;;;;;;;;;5032408;28;20034;-68
2022/04/05 12:38:21;;;;;;;1.90;1.67;;;;;;;;;;5032551;28;20036;-68
2022/04/05 12:40:47;;;;;;;5.18;2.00;;;29.20;36.80;;;;;;5032225;28;20069;-69
2022/04/05 12:43:19;;;;;;;4.97;1.63;;;31.50;38.10;;;;;;5032147;28;20030;-68
2022/04/05 12:45:46;;;;;;;3.90;2.25;;;32.60;36.90;;;;;;5033595;28;20057;-67
2022/04/05 12:48:16;;;;;;;3.13;2.05;;;;;;;;;;5035967;28;20036;-68
2022/04/05 12:50:49;;;;;;;2.10;1.90;;;32.90;35.40;;;;;;5034497;28;20029;-67
2022/04/05 12:53:28;;;;;;;4.68;2.03;;;30.80;36.20;;;;;;5035638;28;20162;-67
2022/04/05 12:56:03;;;;;;;4.40;1.90;;;30.60;36.90;;;;;;5035273;28;20046;-69
2022/04/05 12:58:40;;;;;;;3.72;1.98;;;30.30;35.90;;;;;;5035352;28;20025;-68
2022/04/05 13:01:35;;;;;;;4.75;2.00;;;32.20;36.20;;;;;;5034334;28;20116;-66
2022/04/05 13:04:04;;;;;;;12.20;9.15;;;33.00;35.00;;;;;;5017732;28;20072;-68
2022/04/05 13:06:32;;;;;;;6.75;1.63;;;34.70;35.00;;;;;;5034310;28;20034;-67
2022/04/05 13:09:08;;;;;;;3.65;1.60;;;35.50;33.50;;;;;;5035571;28;20032;-67
2022/04/05 13:11:36;;;;;;;1.95;1.70;;;35.40;34.10;;;;;;5035278;28;20638;-67
2022/04/05 13:14:08;;;;;;;19.15;2.85;;;34.80;33.00;;;;;;5035351;28;20037;-67
2022/04/05 13:16:35;;;;;;;2.00;1.77;;;35.10;32.90;;;;;;5053213;28;20053;-67
2022/04/05 13:19:18;;;;;;;5.22;1.70;;;34.60;33.20;;;;;;5055222;28;20112;-67
2022/04/05 13:21:45;;;;;;;6.28;5.53;;;33.50;32.90;;;;;;5035611;28;20034;-67
2022/04/05 13:24:12;;;;;;;3.30;1.70;;;34.40;32.90;;;;;;5039892;28;20378;-68
2022/04/05 13:27:05;;;;;;;4.07;1.73;;;34.90;32.80;;;;;;5051957;28;20116;-68
2022/04/05 13:29:31;;;;;;;6.43;1.90;;;35.40;33.60;;;;;;5031932;28;20045;-68
2022/04/05 13:32:02;;;;;;;2.65;1.67;;;34.00;33.10;;;;;;5035216;28;20055;-69
2022/04/05 13:34:35;;;;;;;4.40;1.50;;;35.00;33.80;;;;;;5035189;28;20026;-68
2022/04/05 13:37:01;;;;;;;3.97;1.92;;;35.30;32.80;;;;;;5035020;28;20029;-66
2022/04/05 13:39:31;;;;;;;5.03;2.90;;;35.40;53.60;;;;;;5035040;28;20034;-65
2022/04/05 13:41:57;;;;;;;6.32;1.90;;;36.20;32.10;;;;;;5035046;28;20112;-66
2022/04/05 13:44:23;;;;;;;5.55;2.13;;;33.60;32.20;;;;;;5033718;28;20116;-66
2022/04/05 13:46:49;;;;;;;3.53;1.95;;;34.10;33.40;;;;;;5035207;28;20033;-67
2022/04/05 13:49:16;;;;;;;3.72;2.42;;;35.00;33.10;;;;;;5034913;28;20034;-67
2022/04/05 13:51:43;;;;;;;3.65;1.90;;;33.40;32.10;;;;;;5034874;28;20108;-67
2022/04/05 13:54:11;;;;;;;5.05;1.73;;;32.40;32.90;;;;;;5034791;28;20030;-69
2022/04/05 13:56:41;;;;;;;6.32;2.15;;;32.50;34.20;;;;;;5034139;28;20129;-70
2022/04/05 13:59:08;;;;;;;6.72;2.05;;;33.00;32.30;;;;;;5034168;28;20060;-70